Time;durP1;ratioP1;P1;durP2;ratioP2;P2;SDS_P1;SDS_P2;PMS_P1;PMS_P2;Temp;Humidity;BMP_temperature;BMP_pressure;BME280_temperature;BME280_humidity;BME280_pressure;Samples;Min_cycle;Max_cycle;Signal;HPM_P1;HPM_P2
2024/01/12 00:00:31;;;;;;;;;;;;;;;-1.76;37.46;99091.85;109376;1254;59509;-60
2024/01/12 00:02:58;;;;;;;;;;;;;;;-1.89;37.79;99099.55;109376;1255;72654;-61
2024/01/12 00:05:26;;;;;;;;;;;;;;;-2.13;37.83;99102.31;109381;1254;68787;-60
2024/01/12 00:07:53;;;;;;;;;;;;;;;-2.33;37.93;99105.31;109223;1257;72676;-61
2024/01/12 00:10:21;;;;;;;;;;;;;;;-2.24;38.32;99109.21;109126;1257;61753;-60
2024/01/12 00:12:48;;;;;;;;;;;;;;;-2.21;38.31;99114.04;109143;1257;58582;-60
2024/01/12 00:15:15;;;;;;;;;;;;;;;-2.29;38.51;99116.60;109133;1256;73917;-60
2024/01/12 00:17:43;;;;;;;;;;;;;;;-2.24;38.93;99118.65;109100;1257;67145;-60
2024/01/12 00:20:11;;;;;;;;;;;;;;;-2.33;38.98;99128.70;109160;1257;73185;-60
2024/01/12 00:22:38;;;;;;;;;;;;;;;-2.42;39.47;99130.90;109121;1257;61185;-61
2024/01/12 00:25:06;;;;;;;;;;;;;;;-2.64;39.67;99137.20;109131;1256;60011;-59
2024/01/12 00:27:33;;;;;;;;;;;;;;;-2.69;39.88;99140.16;109167;1257;72932;-60
2024/01/12 00:30:01;;;;;;;;;;;;;;;-2.68;39.95;99141.98;109184;1256;68817;-59
2024/01/12 00:32:28;;;;;;;;;;;;;;;-2.63;40.02;99148.21;109121;1256;71456;-59
2024/01/12 00:34:56;;;;;;;;;;;;;;;-2.65;40.07;99157.08;109130;1257;61766;-60
2024/01/12 00:37:23;;;;;;;;;;;;;;;-2.60;40.27;99158.40;109108;1257;59846;-60
2024/01/12 00:39:51;;;;;;;;;;;;;;;-2.78;40.46;99157.19;109294;1253;73053;-61
2024/01/12 00:42:18;;;;;;;;;;;;;;;-2.77;40.51;99152.44;109388;1254;67589;-60
2024/01/12 00:44:45;;;;;;;;;;;;;;;-2.96;40.60;99150.66;109453;1253;71451;-61
2024/01/12 00:47:13;;;;;;;;;;;;;;;-2.81;40.54;99159.03;109358;1257;61729;-60
2024/01/12 00:49:41;;;;;;;;;;;;;;;-2.86;40.46;99162.76;109411;1253;58601;-60
2024/01/12 00:52:08;;;;;;;;;;;;;;;-2.81;40.69;99174.02;109406;1256;73939;-60
2024/01/12 00:54:36;;;;;;;;;;;;;;;-2.83;40.67;99179.28;109382;1253;67919;-62
2024/01/12 00:57:03;;;;;;;;;;;;;;;-2.75;40.70;99178.90;109355;1257;72707;-63
2024/01/12 00:59:31;;;;;;;;;;;;;;;-2.76;40.89;99179.15;109393;1253;60749;-63
2024/01/12 01:01:58;;;;;;;;;;;;;;;-3.02;41.28;99178.88;109396;1254;59864;-61
2024/01/12 01:04:26;;;;;;;;;;;;;;;-2.94;41.36;99184.27;109346;1253;72650;-61
2024/01/12 01:06:54;;;;;;;;;;;;;;;-3.10;41.57;99182.34;109371;1254;68460;-62
2024/01/12 01:09:22;;;;;;;;;;;;;;;-3.17;41.95;99185.64;109392;1253;71447;-61
2024/01/12 01:11:52;;;;;;;;;;;;;;;-3.26;41.92;99185.06;108956;1257;61557;-61
2024/01/12 01:14:23;;;;;;;;;;;;;;;-3.34;42.34;99189.74;108983;1256;58692;-60
2024/01/12 01:16:51;;;;;;;;;;;;;;;-3.56;42.62;99195.40;109123;1257;73931;-60
2024/01/12 01:19:18;;;;;;;;;;;;;;;-3.50;42.68;99198.95;109138;1256;68788;-61
2024/01/12 01:21:46;;;;;;;;;;;;;;;-3.48;42.73;99203.91;109109;1257;71270;-61
2024/01/12 01:24:13;;;;;;;;;;;;;;;-3.62;42.97;99200.11;109121;1256;61841;-63
2024/01/12 01:26:41;;;;;;;;;;;;;;;-3.56;42.91;99205.39;109053;1256;59893;-61
2024/01/12 01:29:08;;;;;;;;;;;;;;;-3.37;42.78;99207.63;109182;1257;74066;-61
2024/01/12 01:31:36;;;;;;;;;;;;;;;-3.44;42.92;99209.64;109159;1256;68841;-61
2024/01/12 01:34:03;;;;;;;;;;;;;;;-3.60;43.12;99207.21;108933;1256;72059;-61
2024/01/12 01:36:31;;;;;;;;;;;;;;;-3.68;42.97;99211.69;108975;1259;61715;-60
2024/01/12 01:38:58;;;;;;;;;;;;;;;-3.67;43.46;99214.49;109097;1259;58406;-60
2024/01/12 01:41:26;;;;;;;;;;;;;;;-3.75;43.58;99219.39;109200;1257;71647;-60
2024/01/12 01:43:53;;;;;;;;;;;;;;;-3.81;43.70;99223.38;109203;1252;67294;-61
2024/01/12 01:46:21;;;;;;;;;;;;;;;-3.82;43.69;99225.60;109369;1254;72793;-61
2024/01/12 01:48:48;;;;;;;;;;;;;;;-3.81;43.69;99227.95;109457;1254;61727;-61
2024/01/12 01:51:16;;;;;;;;;;;;;;;-3.83;43.81;99230.09;109473;1253;58582;-63
2024/01/12 01:53:43;;;;;;;;;;;;;;;-3.96;44.02;99234.09;109200;1254;74389;-64
2024/01/12 01:56:11;;;;;;;;;;;;;;;-3.95;44.13;99236.98;109494;1254;66843;-61
2024/01/12 01:58:38;;;;;;;;;;;;;;;-3.95;44.16;99242.06;109242;1256;71240;-60
2024/01/12 02:01:06;;;;;;;;;;;;;;;-4.02;44.15;99239.72;109157;1257;60601;-62
2024/01/12 02:03:34;;;;;;;;;;;;;;;-4.10;44.56;99242.81;109158;1256;59692;-61
2024/01/12 02:06:01;;;;;;;;;;;;;;;-4.02;44.15;99243.71;109176;1256;72649;-60
2024/01/12 02:08:29;;;;;;;;;;;;;;;-3.86;43.91;99248.10;109174;1256;68994;-60
2024/01/12 02:10:56;;;;;;;;;;;;;;;-3.85;44.01;99249.84;109112;1256;71444;-61
2024/01/12 02:13:24;;;;;;;;;;;;;;;-4.13;44.53;99249.94;109161;1256;60423;-63
2024/01/12 02:15:51;;;;;;;;;;;;;;;-4.06;44.44;99247.42;109208;1256;58569;-61
2024/01/12 02:18:19;;;;;;;;;;;;;;;-4.07;44.50;99251.72;109225;1256;72946;-62
2024/01/12 02:20:47;;;;;;;;;;;;;;;-4.16;44.88;99251.27;109306;1256;68893;-61
2024/01/12 02:23:16;;;;;;;;;;;;;;;-4.29;44.98;99253.58;109188;1255;71588;-61
2024/01/12 02:25:44;;;;;;;;;;;;;;;-4.19;44.89;99255.64;109159;1256;60815;-61
2024/01/12 02:28:12;;;;;;;;;;;;;;;-4.23;45.04;99253.61;109144;1255;59903;-60
2024/01/12 02:30:39;;;;;;;;;;;;;;;-4.34;45.24;99258.99;109307;1256;73909;-61
2024/01/12 02:33:07;;;;;;;;;;;;;;;-4.41;45.51;99257.36;109220;1255;66642;-60
2024/01/12 02:35:35;;;;;;;;;;;;;;;-4.57;45.72;99253.11;109148;1254;72848;-61
2024/01/12 02:38:02;;;;;;;;;;;;;;;-4.58;45.71;99249.54;109154;1254;61755;-61
2024/01/12 02:40:30;;;;;;;;;;;;;;;-4.46;45.50;99253.39;109509;1253;59872;-60
2024/01/12 02:42:58;;;;;;;;;;;;;;;-4.53;45.75;99251.73;109462;1254;73907;-60
2024/01/12 02:45:25;;;;;;;;;;;;;;;-4.61;45.92;99257.81;109479;1254;68847;-60
2024/01/12 02:47:53;;;;;;;;;;;;;;;-4.66;46.19;99258.38;109492;1252;72797;-59
2024/01/12 02:50:22;;;;;;;;;;;;;;;-4.60;46.02;99259.72;109456;1253;60477;-60
2024/01/12 02:52:49;;;;;;;;;;;;;;;-4.73;46.27;99265.80;109506;1254;59876;-60
2024/01/12 02:55:17;;;;;;;;;;;;;;;-4.78;46.44;99269.81;109476;1253;73970;-60
2024/01/12 02:57:45;;;;;;;;;;;;;;;-4.86;46.64;99268.34;109499;1253;67229;-61
2024/01/12 03:00:12;;;;;;;;;;;;;;;-4.80;46.53;99274.37;109462;1254;72717;-63
2024/01/12 03:02:40;;;;;;;;;;;;;;;-5.02;47.00;99279.63;109467;1254;61706;-60
2024/01/12 03:05:08;;;;;;;;;;;;;;;-5.13;47.11;99282.90;109501;1254;58571;-60
2024/01/12 03:07:37;;;;;;;;;;;;;;;-5.11;46.95;99282.02;108746;1253;1002100;-61
2024/01/12 03:10:05;;;;;;;;;;;;;;;-5.08;46.93;99283.20;109483;1254;68825;-61
2024/01/12 03:12:32;;;;;;;;;;;;;;;-5.04;46.90;99285.67;108722;1253;1003017;-61
2024/01/12 03:15:00;;;;;;;;;;;;;;;-5.16;47.10;99291.08;109479;1253;61733;-60
2024/01/12 03:17:27;;;;;;;;;;;;;;;-5.17;46.98;99294.44;108663;1256;1002382;-60
2024/01/12 03:19:55;;;;;;;;;;;;;;;-5.23;47.05;99294.56;109461;1254;73893;-61
2024/01/12 03:22:22;;;;;;;;;;;;;;;-5.17;47.03;99296.92;109501;1253;67237;-61
2024/01/12 03:24:50;;;;;;;;;;;;;;;-5.20;47.15;99301.89;109500;1253;72783;-61
2024/01/12 03:27:17;;;;;;;;;;;;;;;-5.23;47.06;99308.84;109589;1253;61742;-63
2024/01/12 03:29:45;;;;;;;;;;;;;;;-5.14;47.13;99311.23;109496;1253;59905;-64
2024/01/12 03:32:12;;;;;;;;;;;;;;;-5.14;46.98;99314.36;109482;1254;73874;-61
2024/01/12 03:34:40;;;;;;;;;;;;;;;-5.06;46.83;99317.56;109592;1253;68513;-61
2024/01/12 03:37:07;;;;;;;;;;;;;;;-5.19;46.97;99318.43;109467;1253;71772;-61
2024/01/12 03:39:35;;;;;;;;;;;;;;;-5.16;46.92;99326.64;109444;1253;60830;-61
2024/01/12 03:42:02;;;;;;;;;;;;;;;-5.13;47.05;99326.48;109468;1253;59181;-61
2024/01/12 03:44:30;;;;;;;;;;;;;;;-5.24;47.17;99330.65;109502;1253;73941;-60
2024/01/12 03:46:57;;;;;;;;;;;;;;;-5.28;47.49;99335.30;109503;1253;68837;-61
2024/01/12 03:49:25;;;;;;;;;;;;;;;-5.44;47.83;99336.78;109476;1253;72719;-61
2024/01/12 03:51:55;;;;;;;;;;;;;;;-5.46;48.24;99340.13;109347;1256;60471;-60
2024/01/12 03:54:23;;;;;;;;;;;;;;;-5.36;47.92;99347.50;109409;1253;58616;-61
2024/01/12 03:56:51;;;;;;;;;;;;;;;-5.35;47.94;99353.16;109370;1253;73937;-61
2024/01/12 03:59:18;;;;;;;;;;;;;;;-5.35;47.99;99354.05;109386;1253;68795;-61
2024/01/12 04:01:46;;;;;;;;;;;;;;;-5.39;48.17;99359.16;109363;1253;72719;-61
2024/01/12 04:04:13;;;;;;;;;;;;;;;-5.38;48.15;99362.59;109288;1256;61733;-62
2024/01/12 04:06:41;;;;;;;;;;;;;;;-5.30;47.95;99365.89;109429;1253;59857;-62
2024/01/12 04:09:15;;;;;;;;;;;;;;;-5.37;47.99;99368.17;109368;1253;73941;-62
2024/01/12 04:11:42;;;;;;;;;;;;;;;-5.51;48.48;99372.63;109431;1252;67650;-61
2024/01/12 04:14:10;;;;;;;;;;;;;;;-5.56;48.64;99369.47;109494;1253;71573;-61
2024/01/12 04:16:37;;;;;;;;;;;;;;;-5.55;48.59;99373.10;109417;1254;60643;-61
2024/01/12 04:19:05;;;;;;;;;;;;;;;-5.65;48.90;99375.73;109455;1254;59143;-64
2024/01/12 04:21:32;;;;;;;;;;;;;;;-5.54;48.64;99383.77;109189;1253;72639;-61
2024/01/12 04:24:00;;;;;;;;;;;;;;;-5.52;48.68;99385.02;109440;1253;68773;-61
2024/01/12 04:26:27;;;;;;;;;;;;;;;-5.56;48.86;99390.16;109596;1253;72681;-61
2024/01/12 04:28:55;;;;;;;;;;;;;;;-5.72;49.46;99393.19;109469;1253;61777;-61
2024/01/12 04:31:22;;;;;;;;;;;;;;;-5.56;48.99;99392.09;109489;1254;58225;-62
2024/01/12 04:33:50;;;;;;;;;;;;;;;-5.60;49.05;99396.18;109491;1253;73937;-62
2024/01/12 04:36:20;;;;;;;;;;;;;;;-5.61;49.08;99400.48;109488;1253;67547;-62
2024/01/12 04:38:48;;;;;;;;;;;;;;;-5.67;49.12;99400.48;109469;1253;71432;-60
2024/01/12 04:41:15;;;;;;;;;;;;;;;-5.78;49.40;99409.46;109559;1253;60419;-60
2024/01/12 04:43:43;;;;;;;;;;;;;;;-5.74;49.44;99413.70;109492;1256;58940;-60
2024/01/12 04:46:10;;;;;;;;;;;;;;;-5.61;49.01;99415.79;109499;1254;73925;-60
2024/01/12 04:48:37;;;;;;;;;;;;;;;-5.77;49.56;99417.34;109475;1254;67134;-61
2024/01/12 04:51:05;;;;;;;;;;;;;;;-5.69;49.25;99418.13;109477;1254;72929;-62
2024/01/12 04:53:33;;;;;;;;;;;;;;;-5.81;49.47;99420.05;109531;1253;61728;-62
2024/01/12 04:56:01;;;;;;;;;;;;;;;-5.89;49.71;99419.27;109447;1253;60399;-64
2024/01/12 04:58:28;;;;;;;;;;;;;;;-5.84;49.65;99425.70;109224;1253;74092;-65
2024/01/12 05:00:56;;;;;;;;;;;;;;;-5.81;49.26;99434.08;109370;1253;67597;-64
2024/01/12 05:03:23;;;;;;;;;;;;;;;-5.96;49.77;99435.98;109104;1253;72742;-64
2024/01/12 05:05:51;;;;;;;;;;;;;;;-5.88;49.88;99435.46;109302;1253;60872;-64
2024/01/12 05:08:18;;;;;;;;;;;;;;;-5.97;50.04;99440.11;109404;1253;58613;-65
2024/01/12 05:10:46;;;;;;;;;;;;;;;-6.03;50.34;99437.33;109481;1252;73944;-64
2024/01/12 05:13:13;;;;;;;;;;;;;;;-5.89;49.84;99444.18;109489;1254;67698;-62
2024/01/12 05:15:41;;;;;;;;;;;;;;;-6.07;50.26;99444.57;109451;1253;72825;-63
2024/01/12 05:18:08;;;;;;;;;;;;;;;-5.97;50.25;99450.61;109477;1254;61713;-62
2024/01/12 05:20:36;;;;;;;;;;;;;;;-6.06;50.43;99450.21;109512;1253;59851;-61
2024/01/12 05:23:04;;;;;;;;;;;;;;;-6.25;50.65;99453.75;109449;1253;73893;-62
2024/01/12 05:25:34;;;;;;;;;;;;;;;-6.27;51.04;99460.39;109515;1253;68826;-60
2024/01/12 05:28:02;;;;;;;;;;;;;;;-6.32;51.17;99460.42;109414;1253;71400;-60
2024/01/12 05:30:30;;;;;;;;;;;;;;;-6.30;51.08;99465.59;109466;1253;61751;-60
2024/01/12 05:32:57;;;;;;;;;;;;;;;-6.16;50.69;99467.67;109437;1254;58609;-61
2024/01/12 05:35:25;;;;;;;;;;;;;;;-6.18;50.65;99468.85;109579;1253;72658;-61
2024/01/12 05:37:54;;;;;;;;;;;;;;;-6.22;50.74;99476.55;109449;1253;68799;-62
2024/01/12 05:40:22;;;;;;;;;;;;;;;-6.20;50.57;99478.77;109399;1253;72763;-62
2024/01/12 05:42:50;;;;;;;;;;;;;;;-6.24;50.88;99481.58;109356;1253;59845;-60
2024/01/12 05:45:17;;;;;;;;;;;;;;;-6.31;50.70;99486.10;109101;1253;59913;-62
2024/01/12 05:47:45;;;;;;;;;;;;;;;-6.47;51.45;99479.04;109387;1253;73986;-61
2024/01/12 05:50:12;;;;;;;;;;;;;;;-6.41;51.11;99485.11;109380;1253;68838;-63
2024/01/12 05:52:40;;;;;;;;;;;;;;;-6.32;50.74;99484.61;109396;1253;72757;-62
2024/01/12 05:55:07;;;;;;;;;;;;;;;-6.40;50.96;99482.08;109156;1256;61696;-63
2024/01/12 05:57:35;;;;;;;;;;;;;;;-6.51;51.27;99486.86;109139;1256;58653;-65
2024/01/12 06:00:04;;;;;;;;;;;;;;;-6.40;51.04;99486.02;109237;1256;72703;-62
2024/01/12 06:02:32;;;;;;;;;;;;;;;-6.42;50.83;99486.82;109215;1256;68836;-61
2024/01/12 06:04:59;;;;;;;;;;;;;;;-6.49;51.05;99491.42;109206;1256;71483;-60
2024/01/12 06:07:27;;;;;;;;;;;;;;;-6.53;50.97;99488.86;109160;1256;61650;-60
2024/01/12 06:09:54;;;;;;;;;;;;;;;-6.43;50.94;99489.83;109101;1256;59940;-59
2024/01/12 06:12:22;;;;;;;;;;;;;;;-6.38;50.72;99491.09;109153;1256;72591;-61
2024/01/12 06:14:49;;;;;;;;;;;;;;;-6.40;50.73;99488.13;109023;1256;66452;-60
2024/01/12 06:17:17;;;;;;;;;;;;;;;-6.41;50.74;99486.10;109020;1256;72742;-64
2024/01/12 06:19:45;;;;;;;;;;;;;;;-6.46;50.93;99489.92;109112;1258;60514;-61
2024/01/12 06:22:13;;;;;;;;;;;;;;;-6.37;51.03;99489.60;108979;1256;58660;-61
2024/01/12 06:24:40;;;;;;;;;;;;;;;-6.29;50.75;99495.83;109085;1256;73899;-61
2024/01/12 06:27:08;;;;;;;;;;;;;;;-6.21;50.36;99498.91;109250;1253;67287;-62
2024/01/12 06:29:36;;;;;;;;;;;;;;;-6.40;50.70;99499.15;108616;1253;1002938;-61
2024/01/12 06:32:03;;;;;;;;;;;;;;;-6.46;50.93;99500.86;109345;1253;61715;-62
2024/01/12 06:34:31;;;;;;;;;;;;;;;-6.29;50.82;99507.45;109421;1253;59836;-62
2024/01/12 06:36:58;;;;;;;;;;;;;;;-6.18;50.75;99512.34;109406;1253;72636;-63
2024/01/12 06:39:26;;;;;;;;;;;;;;;-5.82;50.04;99512.27;109438;1253;67753;-62
2024/01/12 06:41:54;;;;;;;;;;;;;;;-5.48;48.97;99516.68;108817;1253;1002890;-61
2024/01/12 06:44:21;;;;;;;;;;;;;;;-5.55;48.93;99519.60;109535;1253;60437;-64
2024/01/12 06:46:49;;;;;;;;;;;;;;;-5.38;48.89;99518.43;108724;1252;1002329;-64
2024/01/12 06:49:16;;;;;;;;;;;;;;;-5.19;48.53;99516.21;109488;1253;72604;-61
2024/01/12 06:51:44;;;;;;;;;;;;;;;-4.89;47.79;99519.20;109471;1253;67309;-62
2024/01/12 06:54:11;;;;;;;;;;;;;;;-4.62;47.13;99518.16;109439;1252;72719;-62
2024/01/12 06:56:40;;;;;;;;;;;;;;;-4.27;46.93;99522.14;109171;1254;59818;-60
2024/01/12 06:59:07;;;;;;;;;;;;;;;-4.09;45.98;99527.20;109477;1254;58607;-60
2024/01/12 07:01:35;;;;;;;;;;;;;;;-4.11;45.81;99530.52;109469;1253;73897;-60
2024/01/12 07:04:03;;;;;;;;;;;;;;;-4.48;46.58;99526.48;108705;1253;1003064;-61
2024/01/12 07:06:30;;;;;;;;;;;;;;;-4.28;46.43;99530.73;109402;1254;72767;-61
2024/01/12 07:08:58;;;;;;;;;;;;;;;-4.10;45.73;99532.16;109426;1253;61697;-61
2024/01/12 07:11:26;;;;;;;;;;;;;;;-4.18;45.91;99533.38;109486;1253;59883;-63
2024/01/12 07:13:53;;;;;;;;;;;;;;;-3.91;45.72;99544.35;109526;1253;73948;-60
2024/01/12 07:16:21;;;;;;;;;;;;;;;-3.81;45.02;99544.58;109571;1253;68814;-61
2024/01/12 07:18:48;;;;;;;;;;;;;;;-3.58;44.81;99543.08;109495;1252;71430;-59
2024/01/12 07:21:16;;;;;;;;;;;;;;;-3.12;44.05;99549.24;109448;1254;60556;-62
2024/01/12 07:23:44;;;;;;;;;;;;;;;-3.12;43.37;99546.88;109524;1252;58962;-61
2024/01/12 07:26:11;;;;;;;;;;;;;;;-3.24;43.76;99551.15;109577;1253;73925;-60
2024/01/12 07:28:39;;;;;;;;;;;;;;;-2.86;43.14;99549.94;109499;1253;67788;-60
2024/01/12 07:31:06;;;;;;;;;;;;;;;-3.15;43.32;99541.96;109516;1253;72704;-61
2024/01/12 07:33:34;;;;;;;;;;;;;;;-3.40;43.75;99540.39;109464;1253;61698;-61
2024/01/12 07:36:02;;;;;;;;;;;;;;;-2.73;43.13;99542.29;109492;1253;58595;-60
2024/01/12 07:38:29;;;;;;;;;;;;;;;-2.69;42.59;99544.64;109528;1252;72971;-61
2024/01/12 07:40:56;;;;;;;;;;;;;;;-2.48;42.33;99544.41;109279;1252;67595;-65
2024/01/12 07:43:26;;;;;;;;;;;;;;;-2.07;41.69;99546.70;109627;1253;71729;-63
2024/01/12 07:45:54;;;;;;;;;;;;;;;-1.78;41.28;99551.55;109534;1252;61750;-65
2024/01/12 07:48:22;;;;;;;;;;;;;;;-1.77;41.01;99552.14;109482;1252;58287;-64
2024/01/12 07:50:50;;;;;;;;;;;;;;;-1.85;40.82;99554.63;109475;1252;72722;-65
2024/01/12 07:53:17;;;;;;;;;;;;;;;-2.03;41.25;99554.65;109514;1253;68805;-65
2024/01/12 07:55:45;;;;;;;;;;;;;;;-2.21;41.66;99545.40;109474;1253;72711;-62
2024/01/12 07:58:12;;;;;;;;;;;;;;;-2.03;41.22;99546.59;109490;1254;61767;-66
2024/01/12 08:00:39;;;;;;;;;;;;;;;-1.81;41.15;99553.90;109495;1252;58606;-60
2024/01/12 08:03:07;;;;;;;;;;;;;;;-1.90;41.11;99555.54;109485;1252;71631;-63
2024/01/12 08:05:35;;;;;;;;;;;;;;;-1.72;40.90;99560.66;109488;1254;68822;-66
2024/01/12 08:08:03;;;;;;;;;;;;;;;-1.72;40.87;99564.99;109476;1252;71480;-64
2024/01/12 08:10:30;;;;;;;;;;;;;;;-1.83;40.74;99564.37;109451;1253;61757;-64
2024/01/12 08:12:57;;;;;;;;;;;;;;;-1.63;40.83;99561.76;109494;1253;58576;-64
2024/01/12 08:15:25;;;;;;;;;;;;;;;-1.21;40.49;99564.45;109494;1253;72655;-62
2024/01/12 08:17:52;;;;;;;;;;;;;;;-0.92;39.64;99573.54;109494;1253;68997;-62
2024/01/12 08:20:20;;;;;;;;;;;;;;;-1.45;40.28;99570.77;109609;1252;72741;-64
2024/01/12 08:22:48;;;;;;;;;;;;;;;-1.15;40.69;99575.71;109566;1254;61687;-64
2024/01/12 08:25:16;;;;;;;;;;;;;;;-0.86;39.44;99579.58;109486;1252;58586;-64
2024/01/12 08:27:44;;;;;;;;;;;;;;;-1.57;40.23;99582.52;109489;1252;73934;-60
2024/01/12 08:30:11;;;;;;;;;;;;;;;-0.80;40.03;99592.11;109604;1252;67933;-61
2024/01/12 08:32:58;;;;;;;;;;;;;;;-0.36;38.85;99592.85;109464;1252;72748;-63
2024/01/12 08:35:26;;;;;;;;;;;;;;;-0.72;39.10;99598.61;109429;1254;60603;-60
2024/01/12 08:37:53;;;;;;;;;;;;;;;-0.53;39.41;99604.67;109576;1252;59855;-63
2024/01/12 08:40:21;;;;;;;;;;;;;;;-0.76;39.30;99598.89;109576;1253;73902;-61
2024/01/12 08:42:48;;;;;;;;;;;;;;;-1.04;39.68;99594.86;109522;1252;68664;-64
2024/01/12 08:45:16;;;;;;;;;;;;;;;-0.82;39.28;99598.46;109480;1254;72729;-60
2024/01/12 08:47:43;;;;;;;;;;;;;;;-1.09;39.44;99592.64;109479;1253;61728;-62
2024/01/12 08:50:11;;;;;;;;;;;;;;;-1.36;39.73;99589.90;109247;1252;59886;-64
2024/01/12 08:52:38;;;;;;;;;;;;;;;-1.18;39.52;99595.08;109509;1252;74082;-60
2024/01/12 08:55:09;;;;;;;;;;;;;;;-0.95;39.59;99602.55;109466;1252;67263;-63
2024/01/12 08:57:37;;;;;;;;;;;;;;;-0.73;39.20;99601.94;109457;1253;72779;-61
2024/01/12 09:00:05;;;;;;;;;;;;;;;-0.79;39.13;99597.91;109454;1254;60474;-60
2024/01/12 09:02:33;;;;;;;;;;;;;;;-0.80;39.09;99597.97;109476;1253;59867;-62
2024/01/12 09:05:02;;;;;;;;;;;;;;;-0.54;38.79;99600.42;109538;1252;74036;-61
2024/01/12 09:07:30;;;;;;;;;;;;;;;-0.57;38.69;99601.56;109271;1252;68878;-63
2024/01/12 09:09:57;;;;;;;;;;;;;;;-0.75;38.91;99603.73;109495;1254;72779;-64
2024/01/12 09:12:25;;;;;;;;;;;;;;;-0.65;38.87;99605.95;109458;1258;61504;-61
2024/01/12 09:14:52;;;;;;;;;;;;;;;-0.96;38.90;99605.66;109493;1252;58582;-63
2024/01/12 09:17:20;;;;;;;;;;;;;;;-0.92;39.03;99604.11;109532;1256;73470;-61
2024/01/12 09:19:47;;;;;;;;;;;;;;;-0.90;39.15;99610.59;109372;1255;68472;-63
2024/01/12 09:22:15;;;;;;;;;;;;;;;-0.32;38.62;99608.54;109210;1257;71345;-63
2024/01/12 09:24:43;;;;;;;;;;;;;;;-0.10;37.82;99611.73;109233;1256;60929;-60
2024/01/12 09:27:11;;;;;;;;;;;;;;;-0.20;37.73;99608.34;109114;1255;59203;-64
2024/01/12 09:29:38;;;;;;;;;;;;;;;-0.63;38.08;99603.61;109222;1255;74149;-63
2024/01/12 09:32:06;;;;;;;;;;;;;;;-0.11;37.93;99603.25;109226;1256;68149;-62
2024/01/12 09:34:33;;;;;;;;;;;;;;;0.03;37.27;99607.77;109231;1255;71186;-63
2024/01/12 09:37:01;;;;;;;;;;;;;;;-0.04;37.44;99614.40;109209;1256;62158;-61
2024/01/12 09:39:29;;;;;;;;;;;;;;;-0.29;37.61;99615.92;109208;1257;59348;-62
2024/01/12 09:42:00;;;;;;;;;;;;;;;-0.61;38.12;99612.17;109030;1259;74023;-61
2024/01/12 09:44:28;;;;;;;;;;;;;;;-0.98;38.45;99610.66;108953;1259;69762;-61
2024/01/12 09:46:56;;;;;;;;;;;;;;;-0.85;38.97;99610.17;108998;1259;71857;-61
2024/01/12 09:49:24;;;;;;;;;;;;;;;-0.64;38.92;99609.05;108752;1261;60531;-60
2024/01/12 09:51:52;;;;;;;;;;;;;;;-0.17;38.17;99606.79;109086;1256;59109;-61
2024/01/12 09:54:19;;;;;;;;;;;;;;;-0.42;37.98;99615.50;108961;1258;131163;-60
2024/01/12 09:56:47;;;;;;;;;;;;;;;-0.80;37.89;99614.14;109035;1258;67550;-60
2024/01/12 09:59:17;;;;;;;;;;;;;;;-0.81;38.18;99617.98;109065;1257;72186;-60
2024/01/12 10:01:45;;;;;;;;;;;;;;;-1.35;38.26;99608.88;109002;1260;60748;-61
2024/01/12 10:04:12;;;;;;;;;;;;;;;-1.46;38.88;99608.27;109104;1257;58883;-59
2024/01/12 10:06:40;;;;;;;;;;;;;;;-1.35;38.70;99602.80;108924;1257;74030;-60
2024/01/12 10:09:09;;;;;;;;;;;;;;;-1.86;39.26;99600.66;109092;1257;68653;-60
2024/01/12 10:11:37;;;;;;;;;;;;;;;-1.80;39.15;99598.80;109072;1258;72762;-60
2024/01/12 10:14:04;;;;;;;;;;;;;;;-1.66;39.00;99599.97;109262;1255;60763;-60
2024/01/12 10:16:32;;;;;;;;;;;;;;;-1.31;38.87;99595.01;109390;1258;58936;-60
2024/01/12 10:18:59;;;;;;;;;;;;;;;-0.89;38.43;99594.66;109393;1254;73282;-60
2024/01/12 10:21:28;;;;;;;;;;;;;;;-0.40;37.51;99588.09;109311;1254;70420;-61
2024/01/12 10:24:02;;;;;;;;;;;;;;;-0.04;37.14;99589.02;109401;1257;72593;-61
2024/01/12 10:26:30;;;;;;;;;;;;;;;-0.17;36.63;99576.39;109325;1253;60195;-60
2024/01/12 10:29:02;;;;;;;;;;;;;;;0.07;37.21;99575.76;109430;1253;59674;-60
2024/01/12 10:31:32;;;;;;;;;;;;;;;0.32;36.42;99576.77;109453;1253;73167;-61
2024/01/12 10:34:00;;;;;;;;;;;;;;;-0.02;36.44;99572.61;109314;1254;68049;-61
2024/01/12 10:36:30;;;;;;;;;;;;;;;-0.12;36.95;99569.56;109442;1253;74989;-63
2024/01/12 10:38:58;;;;;;;;;;;;;;;-0.11;36.69;99578.14;109333;1259;60847;-61
2024/01/12 10:41:26;;;;;;;;;;;;;;;-0.24;36.71;99580.35;109425;1254;58831;-61
2024/01/12 10:43:54;;;;;;;;;;;;;;;-0.35;37.11;99575.66;109498;1253;73716;-61
2024/01/12 10:46:27;;;;;;;;;;;;;;;-0.15;37.41;99569.11;109483;1254;69702;-61
2024/01/12 10:48:58;;;;;;;;;;;;;;;-0.00;37.19;99569.80;109442;1252;72212;-64
2024/01/12 10:51:26;;;;;;;;;;;;;;;0.43;36.36;99571.64;109339;1254;63942;-64
2024/01/12 10:53:55;;;;;;;;;;;;;;;0.42;36.34;99569.98;109342;1253;59689;-62
2024/01/12 10:56:23;;;;;;;;;;;;;;;0.11;36.68;99568.49;109341;1254;73249;-62
2024/01/12 10:58:50;;;;;;;;;;;;;;;0.25;36.83;99568.48;109359;1257;67181;-60
2024/01/12 11:01:18;;;;;;;;;;;;;;;-0.04;36.86;99563.32;109210;1257;71743;-61
2024/01/12 11:03:45;;;;;;;;;;;;;;;-0.21;36.91;99569.77;109128;1255;61413;-61
2024/01/12 11:06:13;;;;;;;;;;;;;;;-0.39;37.33;99569.98;109218;1257;58735;-63
2024/01/12 11:08:41;;;;;;;;;;;;;;;-0.54;37.83;99569.17;109234;1256;73938;-61
2024/01/12 11:11:08;;;;;;;;;;;;;;;-0.50;37.76;99568.00;109226;1256;67851;-64
2024/01/12 11:13:36;;;;;;;;;;;;;;;-0.61;37.65;99563.10;109218;1255;72621;-60
2024/01/12 11:16:04;;;;;;;;;;;;;;;-0.59;37.74;99558.80;109029;1257;62154;-60
2024/01/12 11:18:33;;;;;;;;;;;;;;;-0.66;37.80;99555.45;109065;1260;58655;-62
2024/01/12 11:21:02;;;;;;;;;;;;;;;-1.20;38.38;99541.85;109000;1260;73182;-63
2024/01/12 11:23:37;;;;;;;;;;;;;;;-0.99;38.39;99543.38;108986;1258;71333;-61
2024/01/12 11:26:05;;;;;;;;;;;;;;;-0.56;37.83;99540.40;109004;1259;71188;-61
2024/01/12 11:28:38;;;;;;;;;;;;;;;-0.78;37.93;99541.73;108987;1259;60240;-62
2024/01/12 11:31:05;;;;;;;;;;;;;;;-0.47;37.87;99545.68;109206;1256;58165;-60
2024/01/12 11:33:41;;;;;;;;;;;;;;;-0.58;37.45;99540.39;109143;1261;74191;-60
2024/01/12 11:36:15;;;;;;;;;;;;;;;-0.94;38.34;99536.88;109150;1257;66775;-60
2024/01/12 11:38:43;;;;;;;;;;;;;;;-0.35;38.37;99533.17;109160;1256;73753;-60
2024/01/12 11:41:11;;;;;;;;;;;;;;;-0.04;37.74;99525.69;109028;1256;64120;-60
2024/01/12 11:43:39;;;;;;;;;;;;;;;-0.32;37.42;99516.02;109141;1257;58489;-61
2024/01/12 11:46:06;;;;;;;;;;;;;;;-0.28;37.34;99518.02;109155;1256;72589;-60
2024/01/12 11:48:36;;;;;;;;;;;;;;;-0.22;37.69;99516.22;109121;1256;67925;-60
2024/01/12 11:51:03;;;;;;;;;;;;;;;-0.15;37.28;99517.23;109181;1253;72779;-63
2024/01/12 11:53:32;;;;;;;;;;;;;;;-0.59;37.49;99517.48;109587;1254;61442;-60
2024/01/12 11:56:00;;;;;;;;;;;;;;;-0.99;38.31;99523.25;109444;1254;59837;-60
2024/01/12 11:58:30;;;;;;;;;;;;;;;-1.15;38.58;99522.31;109510;1253;73555;-63
2024/01/12 12:00:57;;;;;;;;;;;;;;;-1.44;39.34;99526.04;109498;1254;66934;-61
2024/01/12 12:03:26;;;;;;;;;;;;;;;-1.60;39.57;99522.45;109458;1254;74307;-60
2024/01/12 12:05:53;;;;;;;;;;;;;;;-1.47;39.59;99522.52;109116;1255;60375;-61
2024/01/12 12:08:21;;;;;;;;;;;;;;;-1.39;39.68;99524.77;109245;1255;60092;-60
2024/01/12 12:10:49;;;;;;;;;;;;;;;-1.69;39.49;99520.66;109279;1256;75297;-60
2024/01/12 12:13:16;;;;;;;;;;;;;;;-1.57;39.77;99523.80;109305;1255;67989;-60
2024/01/12 12:15:45;;;;;;;;;;;;;;;-1.31;39.52;99525.45;109270;1256;70910;-60
2024/01/12 12:18:13;;;;;;;;;;;;;;;-1.65;40.04;99526.34;109193;1256;60358;-60
2024/01/12 12:20:41;;;;;;;;;;;;;;;-1.71;40.39;99527.69;109070;1257;59015;-60
2024/01/12 12:23:09;;;;;;;;;;;;;;;-1.67;40.22;99529.17;109001;1257;73788;-60
2024/01/12 12:25:36;;;;;;;;;;;;;;;-1.86;40.21;99527.56;109103;1257;67629;-60
2024/01/12 12:28:04;;;;;;;;;;;;;;;-2.05;40.54;99525.45;109102;1260;73730;-60
2024/01/12 12:30:32;;;;;;;;;;;;;;;-2.00;40.66;99522.73;109030;1257;62720;-61
2024/01/12 12:32:59;;;;;;;;;;;;;;;-2.02;40.09;99525.26;109109;1257;60681;-61
2024/01/12 12:35:27;;;;;;;;;;;;;;;-2.03;40.01;99525.57;108379;1257;1002575;-63
2024/01/12 12:37:59;;;;;;;;;;;;;;;-2.19;39.70;99517.23;109197;1256;68823;-61